Dades meteomassalio
Diari Summary for Gener 17, 2017 Units:  Metric    English   Both
« Previous Day
Next Day »
Diari Semanal Mensual Anual Personalitzat
  Maxima: Minima: Mijana:
Temperatura: 8.4 °C -0.3 °C 4.9 °C
Rosada: 4.7 °C -12.6 °C -4.2 °C
Humitat: 79 % 25 % 54 %
Velocitat del vent: 62.9 km/h 16.7 km/h 34.8 km/h
Racha vent: 62.9 km/h - -
Vent:- - NW
Pressio: 1022.2 hPa 1014.8 hPa -
Pluja: 0.0 mm    
Historical Graphs
 
 
Tabular Data for Gener 17, 2017
Time Temperature Dew Point Pressure Wind Wind Speed Wind Gust Humidity Rainfall Rate (Hourly) solar Conditions
00:01 8.1 °C 4.7 °C 1016.5 hPa NW 44.4 km/h 44.4 km/h 79 % 0.0 mm 0.0 W/m2 CLR
00:06 8.1 °C 4.7 °C 1016.8 hPa NW 35.2 km/h 35.2 km/h 79 % 0.0 mm 0.0 W/m2 CLR
00:11 8.1 °C 4.7 °C 1016.8 hPa NW 42.6 km/h 42.6 km/h 79 % 0.0 mm 0.0 W/m2 CLR
00:16 8.1 °C 4.5 °C 1016.5 hPa NW 41.8 km/h 41.8 km/h 78 % 0.0 mm 0.0 W/m2 CLR
00:21 8.1 °C 4.5 °C 1016.5 hPa NW 38.9 km/h 38.9 km/h 78 % 0.0 mm 0.0 W/m2 CLR
00:26 8.1 °C 4.5 °C 1016.5 hPa NW 42.6 km/h 42.6 km/h 78 % 0.0 mm 0.0 W/m2 CLR
00:31 8.1 °C 4.5 °C 1016.5 hPa NW 31.5 km/h 31.5 km/h 78 % 0.0 mm 0.0 W/m2 CLR
00:36 8.1 °C 4.4 °C 1016.5 hPa NW 35.2 km/h 35.2 km/h 78 % 0.0 mm 0.0 W/m2 CLR
00:41 8.2 °C 4.4 °C 1016.5 hPa NW 44.4 km/h 44.4 km/h 77 % 0.0 mm 0.0 W/m2 CLR
00:46 8.2 °C 4.2 °C 1016.5 hPa NW 44.4 km/h 44.4 km/h 76 % 0.0 mm 0.0 W/m2 CLR
00:51 8.3 °C 4.3 °C 1016.5 hPa NW 62.9 km/h 62.9 km/h 76 % 0.0 mm 0.0 W/m2
00:56 8.3 °C 4.2 °C 1016.1 hPa NW 42.6 km/h 42.6 km/h 75 % 0.0 mm 0.0 W/m2 CLR
01:01 8.3 °C 4.1 °C 1016.5 hPa NNW 41.8 km/h 41.8 km/h 75 % 0.0 mm 0.0 W/m2 CLR
01:06 8.3 °C 4.1 °C 1016.5 hPa NNW 61.1 km/h 61.1 km/h 75 % 0.0 mm 0.0 W/m2 CLR
01:11 8.3 °C 4.1 °C 1016.1 hPa NNW 46.3 km/h 46.3 km/h 75 % 0.0 mm 0.0 W/m2 CLR
01:16 8.2 °C 4.1 °C 1016.1 hPa NW 38.9 km/h 38.9 km/h 75 % 0.0 mm 0.0 W/m2 CLR
01:21 8.2 °C 4.1 °C 1016.5 hPa NW 43.4 km/h 43.4 km/h 75 % 0.0 mm 0.0 W/m2 CLR
01:26 8.3 °C 3.9 °C 1016.1 hPa NNW 50.0 km/h 50.0 km/h 74 % 0.0 mm 0.0 W/m2 CLR
01:31 8.3 °C 3.9 °C 1016.1 hPa NNW 42.6 km/h 42.6 km/h 74 % 0.0 mm 0.0 W/m2 CLR
01:36 8.3 °C 3.9 °C 1016.1 hPa NW 42.6 km/h 42.6 km/h 74 % 0.0 mm 0.0 W/m2 CLR
01:41 8.3 °C 3.9 °C 1016.1 hPa NW 45.1 km/h 45.1 km/h 74 % 0.0 mm 0.0 W/m2 CLR
01:46 8.3 °C 3.9 °C 1016.1 hPa NW 43.4 km/h 43.4 km/h 74 % 0.0 mm 0.0 W/m2 CLR
01:51 8.4 °C 3.8 °C 1016.1 hPa NNW 50.0 km/h 50.0 km/h 73 % 0.0 mm 0.0 W/m2 CLR
01:56 8.4 °C 3.8 °C 1016.1 hPa NNW 35.4 km/h 35.4 km/h 73 % 0.0 mm 0.0 W/m2 CLR
02:01 8.3 °C 3.8 °C 1015.8 hPa NNW 42.6 km/h 42.6 km/h 73 % 0.0 mm 0.0 W/m2 CLR
02:06 8.3 °C 3.8 °C 1015.8 hPa NNW 45.1 km/h 45.1 km/h 73 % 0.0 mm 0.0 W/m2 CLR
02:11 8.4 °C 3.8 °C 1015.5 hPa NW 57.9 km/h 57.9 km/h 73 % 0.0 mm 0.0 W/m2 CLR
02:16 8.4 °C 3.8 °C 1015.8 hPa NW 42.6 km/h 42.6 km/h 73 % 0.0 mm 0.0 W/m2 CLR
02:21 8.4 °C 3.8 °C 1015.8 hPa NNW 53.7 km/h 53.7 km/h 73 % 0.0 mm 0.0 W/m2 CLR
02:26 8.4 °C 3.8 °C 1015.8 hPa NW 51.8 km/h 51.8 km/h 73 % 0.0 mm 0.0 W/m2 CLR
02:31 8.3 °C 3.8 °C 1015.8 hPa NW 44.4 km/h 44.4 km/h 73 % 0.0 mm 0.0 W/m2 CLR
02:36 8.3 °C 3.8 °C 1015.8 hPa NW 59.2 km/h 59.2 km/h 73 % 0.0 mm 0.0 W/m2 CLR
02:41 8.4 °C 3.8 °C 1015.8 hPa NW 49.9 km/h 49.9 km/h 73 % 0.0 mm 0.0 W/m2 CLR
02:46 8.4 °C 3.6 °C 1015.8 hPa NNW 48.1 km/h 48.1 km/h 72 % 0.0 mm 0.0 W/m2 CLR
02:51 8.4 °C 3.7 °C 1015.8 hPa NNW 50.0 km/h 50.0 km/h 72 % 0.0 mm 0.0 W/m2 CLR
02:56 8.4 °C 3.7 °C 1015.5 hPa NNW 55.5 km/h 55.5 km/h 72 % 0.0 mm 0.0 W/m2 CLR
03:01 8.4 °C 3.8 °C 1015.8 hPa NNW 55.5 km/h 55.5 km/h 73 % 0.0 mm 0.0 W/m2 CLR
03:06 8.3 °C 3.8 °C 1015.5 hPa NW 48.1 km/h 48.1 km/h 73 % 0.0 mm 0.0 W/m2 CLR
03:11 8.4 °C 3.8 °C 1015.5 hPa NW 48.1 km/h 48.1 km/h 73 % 0.0 mm 0.0 W/m2
03:16 8.3 °C 3.8 °C 1015.5 hPa NNW 45.1 km/h 45.1 km/h 73 % 0.0 mm 0.0 W/m2 CLR
03:21 8.3 °C 3.8 °C 1015.5 hPa NNW 50.0 km/h 50.0 km/h 73 % 0.0 mm 0.0 W/m2 CLR
03:26 8.3 °C 3.8 °C 1015.5 hPa NNW 53.7 km/h 53.7 km/h 73 % 0.0 mm 0.0 W/m2 CLR
03:31 8.3 °C 3.7 °C 1015.1 hPa NNW 42.6 km/h 42.6 km/h 73 % 0.0 mm 0.0 W/m2 CLR
03:36 8.3 °C 3.7 °C 1015.1 hPa NNW 59.2 km/h 59.2 km/h 73 % 0.0 mm 0.0 W/m2 CLR
03:41 8.3 °C 3.7 °C 1015.1 hPa NNW 50.0 km/h 50.0 km/h 73 % 0.0 mm 0.0 W/m2 CLR
03:46 8.2 °C 3.7 °C 1014.8 hPa NNW 55.5 km/h 55.5 km/h 73 % 0.0 mm 0.0 W/m2 CLR
03:51 8.2 °C 3.6 °C 1014.8 hPa NW 48.1 km/h 48.1 km/h 73 % 0.0 mm 0.0 W/m2 CLR
03:56 8.1 °C 3.6 °C 1014.8 hPa NNW 55.5 km/h 55.5 km/h 73 % 0.0 mm 0.0 W/m2
04:01 8.1 °C 3.5 °C 1014.8 hPa NNW 50.0 km/h 50.0 km/h 73 % 0.0 mm 0.0 W/m2 CLR
04:06 8.1 °C 3.5 °C 1014.8 hPa NW 48.1 km/h 48.1 km/h 73 % 0.0 mm 0.0 W/m2 CLR
04:11 7.9 °C 3.4 °C 1014.8 hPa NW 38.9 km/h 38.9 km/h 73 % 0.0 mm 0.0 W/m2 CLR
04:16 7.9 °C 3.3 °C 1014.8 hPa NNW 45.1 km/h 45.1 km/h 73 % 0.0 mm 0.0 W/m2 CLR
04:21 7.9 °C 3.4 °C 1014.8 hPa NNW 46.3 km/h 46.3 km/h 73 % 0.0 mm 0.0 W/m2 CLR
04:26 7.9 °C 3.2 °C 1014.8 hPa NNW 53.7 km/h 53.7 km/h 72 % 0.0 mm 0.0 W/m2 CLR
04:31 7.8 °C 3.1 °C 1014.8 hPa NNW 43.4 km/h 43.4 km/h 72 % 0.0 mm 0.0 W/m2 CLR
04:36 7.8 °C 3.1 °C 1014.8 hPa NNW 50.0 km/h 50.0 km/h 72 % 0.0 mm 0.0 W/m2 CLR
04:41 7.7 °C 3.0 °C 1014.8 hPa NNW 42.6 km/h 42.6 km/h 72 % 0.0 mm 0.0 W/m2 CLR
04:46 7.7 °C 3.0 °C 1014.8 hPa NNW 55.5 km/h 55.5 km/h 72 % 0.0 mm 0.0 W/m2
04:51 7.7 °C 2.9 °C 1014.8 hPa NW 53.7 km/h 53.7 km/h 72 % 0.0 mm 0.0 W/m2 CLR
04:56 7.6 °C 2.7 °C 1015.1 hPa NW 38.9 km/h 38.9 km/h 71 % 0.0 mm 0.0 W/m2 CLR
04:57 7.6 °C 2.9 °C 1015.1 hPa NW 38.9 km/h 38.9 km/h 72 % 0.0 mm 0.0 W/m2 CLR
05:02 7.6 °C 2.7 °C 1015.1 hPa NW 55.5 km/h 55.5 km/h 71 % 0.0 mm 0.0 W/m2 CLR
05:07 7.5 °C 2.6 °C 1015.1 hPa NW 33.8 km/h 33.8 km/h 71 % 0.0 mm 0.0 W/m2 CLR
05:12 7.3 °C 2.4 °C 1015.5 hPa NW 33.8 km/h 33.8 km/h 71 % 0.0 mm 0.0 W/m2 CLR
05:17 7.3 °C 2.4 °C 1015.1 hPa NNW 44.4 km/h 44.4 km/h 71 % 0.0 mm 0.0 W/m2 CLR
05:22 7.2 °C 2.3 °C 1015.1 hPa NNW 38.9 km/h 38.9 km/h 71 % 0.0 mm 0.0 W/m2 CLR
05:27 7.1 °C 2.2 °C 1015.5 hPa NNW 40.2 km/h 40.2 km/h 71 % 0.0 mm 0.0 W/m2 CLR
05:32 7.1 °C 2.2 °C 1015.5 hPa NNW 37.0 km/h 37.0 km/h 71 % 0.0 mm 0.0 W/m2 CLR
05:37 6.9 °C 2.2 °C 1015.5 hPa NW 41.8 km/h 41.8 km/h 72 % 0.0 mm 0.0 W/m2 CLR
05:42 6.9 °C 2.2 °C 1015.5 hPa NW 46.7 km/h 46.7 km/h 72 % 0.0 mm 0.0 W/m2 CLR
05:47 6.8 °C 2.1 °C 1015.5 hPa NW 41.8 km/h 41.8 km/h 72 % 0.0 mm 0.0 W/m2 CLR
05:52 6.8 °C 2.1 °C 1015.5 hPa NNW 37.0 km/h 37.0 km/h 72 % 0.0 mm 0.0 W/m2 CLR
05:57 6.7 °C 2.0 °C 1015.8 hPa NW 50.0 km/h 50.0 km/h 72 % 0.0 mm 0.0 W/m2 CLR
06:02 6.5 °C 1.8 °C 1015.8 hPa NW 46.3 km/h 46.3 km/h 72 % 0.0 mm 0.0 W/m2 CLR
06:07 6.4 °C 1.9 °C 1015.8 hPa NNW 37.0 km/h 37.0 km/h 73 % 0.0 mm 0.0 W/m2 CLR
06:12 6.3 °C 1.8 °C 1015.8 hPa NNW 50.0 km/h 50.0 km/h 73 % 0.0 mm 0.0 W/m2 CLR
06:17 6.1 °C 1.6 °C 1015.8 hPa NNW 38.9 km/h 38.9 km/h 73 % 0.0 mm 0.0 W/m2 CLR
06:22 6.1 °C 1.6 °C 1016.1 hPa NNW 42.6 km/h 42.6 km/h 73 % 0.0 mm 0.0 W/m2 CLR
06:27 6.0 °C 1.5 °C 1016.1 hPa NNW 42.6 km/h 42.6 km/h 73 % 0.0 mm 0.0 W/m2 CLR
06:32 5.9 °C 1.4 °C 1016.1 hPa NW 40.7 km/h 40.7 km/h 73 % 0.0 mm 0.0 W/m2 CLR
06:37 5.8 °C 1.3 °C 1016.1 hPa NW 46.3 km/h 46.3 km/h 73 % 0.0 mm 0.0 W/m2 CLR
06:43 5.8 °C 1.3 °C 1016.1 hPa NW 46.3 km/h 46.3 km/h 73 % 0.0 mm 0.0 W/m2 CLR
06:48 5.6 °C 1.2 °C 1016.5 hPa NW 46.3 km/h 46.3 km/h 73 % 0.0 mm 0.0 W/m2 CLR
06:53 5.5 °C 1.1 °C 1016.5 hPa NW 42.6 km/h 42.6 km/h 73 % 0.0 mm 0.0 W/m2 CLR
06:58 5.4 °C 1.0 °C 1016.5 hPa NNW 38.9 km/h 38.9 km/h 73 % 0.0 mm 0.0 W/m2 CLR
07:03 5.3 °C 0.9 °C 1016.8 hPa NNW 38.9 km/h 38.9 km/h 73 % 0.0 mm 0.0 W/m2 CLR
07:08 5.3 °C 0.8 °C 1017.2 hPa NNW 27.8 km/h 27.8 km/h 73 % 0.0 mm 0.0 W/m2 CLR
07:13 5.2 °C 0.7 °C 1017.2 hPa NNW 29.6 km/h 29.6 km/h 73 % 0.0 mm 0.0 W/m2 CLR
07:18 5.0 °C 0.7 °C 1017.5 hPa NNW 27.8 km/h 27.8 km/h 74 % 0.0 mm 0.0 W/m2 CLR
07:23 4.9 °C 0.7 °C 1017.5 hPa NNW 25.9 km/h 25.9 km/h 74 % 0.0 mm 0.0 W/m2 CLR
07:28 4.8 °C 0.6 °C 1017.8 hPa NNW 27.8 km/h 27.8 km/h 74 % 0.0 mm 0.0 W/m2 CLR
07:33 4.7 °C 0.5 °C 1017.8 hPa North 24.1 km/h 24.1 km/h 74 % 0.0 mm 0.0 W/m2 CLR
07:38 4.6 °C 0.4 °C 1017.8 hPa NNW 25.9 km/h 25.9 km/h 74 % 0.0 mm 0.0 W/m2 CLR
07:43 4.5 °C 0.3 °C 1017.8 hPa NNW 24.1 km/h 24.1 km/h 74 % 0.0 mm 0.0 W/m2 CLR
07:48 4.3 °C 0.1 °C 1017.8 hPa NNW 24.1 km/h 24.1 km/h 74 % 0.0 mm 0.0 W/m2 CLR
07:53 4.3 °C -0.1 °C 1017.8 hPa NNW 22.5 km/h 22.5 km/h 73 % 0.0 mm 0.0 W/m2 CLR
07:58 4.3 °C -0.1 °C 1018.2 hPa NNW 31.5 km/h 31.5 km/h 73 % 0.0 mm 0.0 W/m2 CLR
08:03 4.2 °C -0.4 °C 1018.2 hPa NNW 27.8 km/h 27.8 km/h 72 % 0.0 mm 0.0 W/m2 CLR
08:08 4.1 °C -0.5 °C 1018.2 hPa NW 30.6 km/h 30.6 km/h 72 % 0.0 mm 0.0 W/m2 CLR
08:13 4.1 °C -0.6 °C 1018.5 hPa NW 29.6 km/h 29.6 km/h 72 % 0.0 mm 0.0 W/m2 CLR
08:18 3.9 °C -0.8 °C 1018.5 hPa NW 35.2 km/h 35.2 km/h 71 % 0.0 mm 0.0 W/m2 CLR
08:23 3.8 °C -0.9 °C 1018.5 hPa NW 32.2 km/h 32.2 km/h 71 % 0.0 mm 5.0 W/m2 BKN
08:28 3.8 °C -1.2 °C 1018.5 hPa NW 35.2 km/h 35.2 km/h 70 % 0.0 mm 7.0 W/m2 BKN
08:33 3.7 °C -1.2 °C 1018.8 hPa NW 38.9 km/h 38.9 km/h 70 % 0.0 mm 9.0 W/m2 BKN
08:38 3.6 °C -1.3 °C 1018.8 hPa NW 31.5 km/h 31.5 km/h 70 % 0.0 mm 11.0 W/m2 BKN
08:43 3.5 °C -1.4 °C 1018.8 hPa NW 27.8 km/h 27.8 km/h 70 % 0.0 mm 12.0 W/m2 BKN
08:48 3.5 °C -1.4 °C 1018.8 hPa NW 31.5 km/h 31.5 km/h 70 % 0.0 mm 14.0 W/m2 BKN
08:53 3.4 °C -1.6 °C 1018.8 hPa NW 27.8 km/h 27.8 km/h 70 % 0.0 mm 25.0 W/m2 BKN
08:58 3.3 °C -1.7 °C 1018.8 hPa NW 29.6 km/h 29.6 km/h 70 % 0.0 mm 37.0 W/m2 BKN
09:03 3.3 °C -1.9 °C 1018.8 hPa NW 29.6 km/h 29.6 km/h 69 % 0.0 mm 37.0 W/m2 BKN
09:08 3.3 °C -1.9 °C 1018.8 hPa NW 31.5 km/h 31.5 km/h 69 % 0.0 mm 47.0 W/m2 BKN
09:13 3.3 °C -2.0 °C 1018.8 hPa NW 37.0 km/h 37.0 km/h 68 % 0.0 mm 58.0 W/m2 BKN
09:18 3.3 °C -2.2 °C 1019.2 hPa NW 35.2 km/h 35.2 km/h 67 % 0.0 mm 72.0 W/m2 BKN
09:23 3.3 °C -2.2 °C 1019.2 hPa NW 37.0 km/h 37.0 km/h 67 % 0.0 mm 79.0 W/m2 BKN
09:28 3.4 °C -2.4 °C 1019.2 hPa NW 37.0 km/h 37.0 km/h 66 % 0.0 mm 100.0 W/m2 BKN
09:33 3.4 °C -2.4 °C 1019.2 hPa NW 35.2 km/h 35.2 km/h 66 % 0.0 mm 113.0 W/m2 BKN
09:38 3.4 °C -2.8 °C 1019.2 hPa NW 35.4 km/h 35.4 km/h 64 % 0.0 mm 114.0 W/m2 BKN
09:43 3.5 °C -2.7 °C 1019.5 hPa NNW 31.5 km/h 31.5 km/h 64 % 0.0 mm 146.0 W/m2 BKN
09:48 3.5 °C -2.9 °C 1019.2 hPa NW 29.6 km/h 29.6 km/h 63 % 0.0 mm 162.0 W/m2 BKN
09:53 3.6 °C -2.8 °C 1019.5 hPa NW 29.6 km/h 29.6 km/h 63 % 0.0 mm 169.0 W/m2 SCT
09:58 3.6 °C -3.2 °C 1019.5 hPa NW 31.5 km/h 31.5 km/h 61 % 0.0 mm 162.0 W/m2 SCT
10:03 3.7 °C -3.1 °C 1019.5 hPa NW 38.9 km/h 38.9 km/h 61 % 0.0 mm 206.0 W/m2 BKN
10:08 3.7 °C -3.3 °C 1019.5 hPa NW 31.5 km/h 31.5 km/h 60 % 0.0 mm 200.0 W/m2 SCT
10:13 3.8 °C -3.2 °C 1019.5 hPa NW 29.6 km/h 29.6 km/h 60 % 0.0 mm 236.0 W/m2 SCT
10:18 3.9 °C -3.3 °C 1019.9 hPa NW 31.5 km/h 31.5 km/h 59 % 0.0 mm 251.0 W/m2 SCT
10:24 4.1 °C -3.2 °C 1019.9 hPa NW 25.9 km/h 25.9 km/h 59 % 0.0 mm 267.0 W/m2 SCT
10:29 4.1 °C -3.4 °C 1019.9 hPa NW 31.5 km/h 31.5 km/h 58 % 0.0 mm 281.0 W/m2 SCT
10:34 4.2 °C -3.6 °C 1019.9 hPa NW 24.1 km/h 24.1 km/h 57 % 0.0 mm 294.0 W/m2 SCT
10:39 4.3 °C -3.7 °C 1019.9 hPa NW 22.2 km/h 22.2 km/h 56 % 0.0 mm 306.0 W/m2 FEW
10:44 4.4 °C -3.9 °C 1019.9 hPa NW 33.3 km/h 33.3 km/h 55 % 0.0 mm 316.0 W/m2 FEW
10:49 4.3 °C -4.2 °C 1019.9 hPa NW 27.8 km/h 27.8 km/h 54 % 0.0 mm 325.0 W/m2 FEW
10:54 4.4 °C -4.1 °C 1020.2 hPa NW 25.9 km/h 25.9 km/h 54 % 0.0 mm 338.0 W/m2 FEW
10:59 4.7 °C -3.8 °C 1019.9 hPa NW 30.6 km/h 30.6 km/h 54 % 0.0 mm 346.0 W/m2 FEW
11:04 4.8 °C -4.3 °C 1019.9 hPa NW 27.8 km/h 27.8 km/h 52 % 0.0 mm 359.0 W/m2 FEW
11:09 4.8 °C -4.2 °C 1019.9 hPa NW 27.8 km/h 27.8 km/h 52 % 0.0 mm 366.0 W/m2 FEW
11:14 4.9 °C -4.7 °C 1019.9 hPa NW 25.9 km/h 25.9 km/h 50 % 0.0 mm 374.0 W/m2 FEW
11:19 5.0 °C -4.6 °C 1019.9 hPa NW 29.6 km/h 29.6 km/h 50 % 0.0 mm 383.0 W/m2 FEW
11:24 5.1 °C -4.5 °C 1019.9 hPa NW 27.8 km/h 27.8 km/h 50 % 0.0 mm 392.0 W/m2 FEW
11:29 5.1 °C -4.5 °C 1019.9 hPa NW 33.3 km/h 33.3 km/h 50 % 0.0 mm 399.0 W/m2 FEW
11:34 5.1 °C -5.0 °C 1019.5 hPa NNW 29.6 km/h 29.6 km/h 48 % 0.0 mm 410.0 W/m2 FEW
11:39 5.1 °C -4.8 °C 1019.2 hPa NW 40.7 km/h 40.7 km/h 49 % 0.0 mm 415.0 W/m2 CLR
11:44 4.9 °C -5.2 °C 1019.2 hPa NNW 40.7 km/h 40.7 km/h 48 % 0.0 mm 422.0 W/m2 CLR
11:49 4.8 °C -5.6 °C 1019.2 hPa NNW 40.2 km/h 40.2 km/h 47 % 0.0 mm 427.0 W/m2 CLR
11:54 5.0 °C -5.4 °C 1019.2 hPa NNW 27.8 km/h 27.8 km/h 47 % 0.0 mm 436.0 W/m2 CLR
11:59 5.2 °C -5.5 °C 1019.5 hPa NNW 25.9 km/h 25.9 km/h 46 % 0.0 mm 438.0 W/m2 CLR
12:04 5.2 °C -5.8 °C 1019.9 hPa NNW 22.2 km/h 22.2 km/h 45 % 0.0 mm 443.0 W/m2 CLR
12:09 5.3 °C -5.7 °C 1019.5 hPa NNW 27.8 km/h 27.8 km/h 45 % 0.0 mm 448.0 W/m2 CLR
12:14 5.3 °C -5.7 °C 1019.5 hPa NNW 38.9 km/h 38.9 km/h 45 % 0.0 mm 454.0 W/m2 CLR
12:19 5.2 °C -5.8 °C 1019.5 hPa NNW 31.5 km/h 31.5 km/h 45 % 0.0 mm 457.0 W/m2 CLR
12:24 5.2 °C -6.1 °C 1019.2 hPa NNW 35.2 km/h 35.2 km/h 44 % 0.0 mm 462.0 W/m2 CLR
12:29 5.3 °C -5.7 °C 1018.8 hPa NNW 35.2 km/h 35.2 km/h 45 % 0.0 mm 464.0 W/m2 CLR
12:34 5.4 °C -5.9 °C 1019.2 hPa NNW 31.5 km/h 31.5 km/h 44 % 0.0 mm 468.0 W/m2 CLR
12:39 5.4 °C -5.9 °C 1019.2 hPa NNW 31.5 km/h 31.5 km/h 44 % 0.0 mm 471.0 W/m2 CLR
12:44 5.4 °C -6.2 °C 1018.8 hPa NNW 33.3 km/h 33.3 km/h 43 % 0.0 mm 475.0 W/m2 CLR
12:49 5.6 °C -6.1 °C 1018.8 hPa NNW 33.3 km/h 33.3 km/h 43 % 0.0 mm 475.0 W/m2 CLR
12:54 5.5 °C -6.1 °C 1019.2 hPa NNW 38.9 km/h 38.9 km/h 43 % 0.0 mm 473.0 W/m2 CLR
12:59 5.4 °C -6.2 °C 1019.2 hPa NNW 31.5 km/h 31.5 km/h 43 % 0.0 mm 476.0 W/m2 CLR
13:04 5.6 °C -6.0 °C 1019.2 hPa NW 27.8 km/h 27.8 km/h 43 % 0.0 mm 475.0 W/m2 CLR
13:09 5.7 °C -5.9 °C 1019.2 hPa NW 27.8 km/h 27.8 km/h 43 % 0.0 mm 476.0 W/m2 CLR
13:14 5.9 °C -6.4 °C 1018.8 hPa NW 40.7 km/h 40.7 km/h 41 % 0.0 mm 480.0 W/m2 CLR
13:19 5.7 °C -6.2 °C 1018.5 hPa NW 33.8 km/h 33.8 km/h 42 % 0.0 mm 478.0 W/m2 CLR
13:24 5.8 °C -6.5 °C 1018.5 hPa NW 38.9 km/h 38.9 km/h 41 % 0.0 mm 478.0 W/m2 CLR
13:29 5.8 °C -6.8 °C 1018.8 hPa NW 37.0 km/h 37.0 km/h 40 % 0.0 mm 476.0 W/m2 CLR
13:34 5.9 °C -6.4 °C 1018.8 hPa NNW 27.8 km/h 27.8 km/h 41 % 0.0 mm 473.0 W/m2 CLR
13:39 6.1 °C -6.6 °C 1018.8 hPa NNW 30.6 km/h 30.6 km/h 40 % 0.0 mm 471.0 W/m2 CLR
13:44 6.1 °C -6.6 °C 1018.5 hPa NNW 31.5 km/h 31.5 km/h 40 % 0.0 mm 469.0 W/m2 CLR
13:49 6.3 °C -6.1 °C 1018.2 hPa NW 29.6 km/h 29.6 km/h 41 % 0.0 mm 469.0 W/m2 CLR
13:54 6.2 °C -7.1 °C 1018.5 hPa NW 40.7 km/h 40.7 km/h 38 % 0.0 mm 462.0 W/m2 CLR
13:59 6.2 °C -6.7 °C 1018.5 hPa NW 25.9 km/h 25.9 km/h 39 % 0.0 mm 461.0 W/m2 CLR
14:04 6.2 °C -7.4 °C 1018.5 hPa NW 35.2 km/h 35.2 km/h 37 % 0.0 mm 457.0 W/m2 CLR
14:09 6.4 °C -6.9 °C 1018.2 hPa NW 37.0 km/h 37.0 km/h 38 % 0.0 mm 457.0 W/m2 CLR
14:14 6.3 °C -7.3 °C 1018.2 hPa NW 32.2 km/h 32.2 km/h 37 % 0.0 mm 452.0 W/m2 CLR
14:19 6.4 °C -7.2 °C 1017.8 hPa NW 31.5 km/h 31.5 km/h 37 % 0.0 mm 445.0 W/m2 CLR
14:24 6.6 °C -7.5 °C 1017.8 hPa NW 35.4 km/h 35.4 km/h 36 % 0.0 mm 436.0 W/m2 CLR
14:29 6.6 °C -7.8 °C 1017.8 hPa NW 37.0 km/h 37.0 km/h 35 % 0.0 mm 431.0 W/m2 CLR
14:34 6.6 °C -8.2 °C 1017.8 hPa NNW 37.0 km/h 37.0 km/h 34 % 0.0 mm 424.0 W/m2 CLR
14:39 6.7 °C -8.1 °C 1017.5 hPa NW 32.2 km/h 32.2 km/h 34 % 0.0 mm 420.0 W/m2 CLR
14:44 6.7 °C -9.3 °C 1017.8 hPa NW 40.7 km/h 40.7 km/h 31 % 0.0 mm 418.0 W/m2 CLR
14:49 6.5 °C -9.4 °C 1017.8 hPa NW 40.7 km/h 40.7 km/h 31 % 0.0 mm 404.0 W/m2 CLR
14:54 6.6 °C -9.4 °C 1017.8 hPa NNW 37.0 km/h 37.0 km/h 31 % 0.0 mm 399.0 W/m2 CLR
14:59 6.8 °C -9.2 °C 1017.8 hPa NW 46.7 km/h 46.7 km/h 31 % 0.0 mm 390.0 W/m2 CLR
15:04 6.7 °C -9.7 °C 1017.8 hPa NW 37.0 km/h 37.0 km/h 30 % 0.0 mm 381.0 W/m2 CLR
15:09 6.6 °C -9.8 °C 1017.8 hPa NW 40.7 km/h 40.7 km/h 30 % 0.0 mm 373.0 W/m2 CLR
15:14 6.4 °C -9.9 °C 1017.8 hPa NW 40.7 km/h 40.7 km/h 30 % 0.0 mm 367.0 W/m2 CLR
15:19 6.4 °C -9.9 °C 1017.8 hPa NW 37.0 km/h 37.0 km/h 30 % 0.0 mm 359.0 W/m2 CLR
15:24 6.6 °C -10.2 °C 1017.8 hPa NW 41.8 km/h 41.8 km/h 29 % 0.0 mm 343.0 W/m2 CLR
15:29 6.7 °C -9.7 °C 1017.8 hPa NW 35.4 km/h 35.4 km/h 30 % 0.0 mm 334.0 W/m2 CLR
15:34 6.7 °C -10.2 °C 1017.8 hPa NW 38.9 km/h 38.9 km/h 29 % 0.0 mm 325.0 W/m2 CLR
15:39 6.5 °C -10.3 °C 1017.8 hPa NNW 41.8 km/h 41.8 km/h 29 % 0.0 mm 316.0 W/m2 CLR
15:44 6.6 °C -10.2 °C 1017.8 hPa NW 38.9 km/h 38.9 km/h 29 % 0.0 mm 304.0 W/m2 CLR
15:49 6.4 °C -10.3 °C 1017.8 hPa NW 42.6 km/h 42.6 km/h 29 % 0.0 mm 294.0 W/m2 CLR
15:54 6.4 °C -10.8 °C 1017.8 hPa NW 40.7 km/h 40.7 km/h 28 % 0.0 mm 281.0 W/m2 CLR
15:59 6.4 °C -10.8 °C 1017.8 hPa NW 35.2 km/h 35.2 km/h 28 % 0.0 mm 269.0 W/m2 CLR
16:04 6.4 °C -10.8 °C 1017.8 hPa WNW 31.5 km/h 31.5 km/h 28 % 0.0 mm 253.0 W/m2 CLR
16:09 6.4 °C -10.8 °C 1018.2 hPa WNW 27.8 km/h 27.8 km/h 28 % 0.0 mm 241.0 W/m2 CLR
16:10 6.4 °C -10.8 °C 1018.2 hPa WNW 31.5 km/h 31.5 km/h 28 % 0.0 mm 241.0 W/m2 CLR
16:15 6.6 °C -10.7 °C 1017.8 hPa NW 27.8 km/h 27.8 km/h 28 % 0.0 mm 223.0 W/m2 CLR
16:20 6.6 °C -11.6 °C 1017.8 hPa NW 35.2 km/h 35.2 km/h 26 % 0.0 mm 209.0 W/m2 CLR
16:25 6.6 °C -11.6 °C 1018.2 hPa NNW 37.0 km/h 37.0 km/h 26 % 0.0 mm 193.0 W/m2 CLR
16:30 6.4 °C -11.8 °C 1018.2 hPa NNW 33.3 km/h 33.3 km/h 26 % 0.0 mm 179.0 W/m2 CLR
16:35 6.2 °C -12.4 °C 1018.5 hPa NW 42.6 km/h 42.6 km/h 25 % 0.0 mm 162.0 W/m2 CLR
16:40 6.0 °C -12.6 °C 1018.5 hPa NW 33.8 km/h 33.8 km/h 25 % 0.0 mm 148.0 W/m2 CLR
16:45 5.9 °C -12.2 °C 1018.5 hPa NNW 20.4 km/h 20.4 km/h 26 % 0.0 mm 134.0 W/m2 CLR
16:50 5.9 °C -12.2 °C 1018.2 hPa NW 35.2 km/h 35.2 km/h 26 % 0.0 mm 120.0 W/m2 CLR
16:55 5.7 °C -12.4 °C 1018.5 hPa NW 33.3 km/h 33.3 km/h 26 % 0.0 mm 104.0 W/m2 CLR
17:00 5.6 °C -12.5 °C 1018.5 hPa NNW 35.4 km/h 35.4 km/h 26 % 0.0 mm 90.0 W/m2 CLR
17:05 5.5 °C -12.1 °C 1018.5 hPa NW 29.6 km/h 29.6 km/h 27 % 0.0 mm 62.0 W/m2 CLR
17:10 5.4 °C -11.7 °C 1018.5 hPa NW 25.9 km/h 25.9 km/h 28 % 0.0 mm 47.0 W/m2 CLR
17:15 5.1 °C -11.9 °C 1018.5 hPa NNW 31.5 km/h 31.5 km/h 28 % 0.0 mm 49.0 W/m2 OVC
17:20 4.9 °C -12.1 °C 1018.5 hPa NW 35.2 km/h 35.2 km/h 28 % 0.0 mm 39.0 W/m2 OVC
17:25 4.7 °C -11.8 °C 1018.5 hPa NW 40.7 km/h 40.7 km/h 29 % 0.0 mm 30.0 W/m2 OVC
17:30 4.6 °C -11.9 °C 1018.5 hPa NW 35.2 km/h 35.2 km/h 29 % 0.0 mm 21.0 W/m2 OVC
17:35 4.4 °C -12.1 °C 1018.5 hPa NW 46.7 km/h 46.7 km/h 29 % 0.0 mm 16.0 W/m2 OVC
17:40 4.3 °C -11.8 °C 1018.5 hPa NW 31.5 km/h 31.5 km/h 30 % 0.0 mm 12.0 W/m2 OVC
17:45 4.1 °C -11.9 °C 1018.8 hPa NW 31.5 km/h 31.5 km/h 30 % 0.0 mm 11.0 W/m2 OVC
17:50 3.9 °C -11.7 °C 1018.8 hPa NW 33.3 km/h 33.3 km/h 31 % 0.0 mm 9.0 W/m2 OVC
17:55 3.8 °C -11.8 °C 1018.8 hPa NW 25.9 km/h 25.9 km/h 31 % 0.0 mm 7.0 W/m2 OVC
18:00 3.7 °C -11.9 °C 1018.8 hPa NW 33.3 km/h 33.3 km/h 31 % 0.0 mm 0.0 W/m2 CLR
18:05 3.6 °C -11.6 °C 1018.8 hPa NW 31.5 km/h 31.5 km/h 32 % 0.0 mm 0.0 W/m2 CLR
18:10 3.4 °C -11.7 °C 1018.8 hPa NW 33.3 km/h 33.3 km/h 32 % 0.0 mm 0.0 W/m2 CLR
18:15 3.3 °C -11.4 °C 1018.8 hPa NW 27.8 km/h 27.8 km/h 33 % 0.0 mm 0.0 W/m2 CLR
18:20 3.3 °C -11.5 °C 1019.2 hPa NW 31.5 km/h 31.5 km/h 33 % 0.0 mm 0.0 W/m2 CLR
18:25 3.2 °C -11.2 °C 1019.2 hPa NW 29.6 km/h 29.6 km/h 34 % 0.0 mm 0.0 W/m2 CLR
18:30 3.0 °C -11.4 °C 1019.2 hPa NW 31.5 km/h 31.5 km/h 34 % 0.0 mm 0.0 W/m2 CLR
18:35 2.9 °C -11.1 °C 1019.2 hPa NW 24.1 km/h 24.1 km/h 35 % 0.0 mm 0.0 W/m2 CLR
18:40 2.8 °C -11.2 °C 1019.2 hPa NW 31.5 km/h 31.5 km/h 35 % 0.0 mm 0.0 W/m2 CLR
18:46 2.8 °C -11.2 °C 1019.5 hPa NW 37.0 km/h 37.0 km/h 35 % 0.0 mm 0.0 W/m2 CLR
18:51 2.7 °C -10.9 °C 1019.5 hPa NW 25.9 km/h 25.9 km/h 36 % 0.0 mm 0.0 W/m2 CLR
18:56 2.6 °C -11.0 °C 1019.5 hPa NW 35.2 km/h 35.2 km/h 36 % 0.0 mm 0.0 W/m2 CLR
19:01 2.5 °C -11.1 °C 1019.5 hPa NW 25.9 km/h 25.9 km/h 36 % 0.0 mm 0.0 W/m2 CLR
19:06 2.4 °C -10.8 °C 1019.9 hPa NW 29.6 km/h 29.6 km/h 37 % 0.0 mm 0.0 W/m2 CLR
19:11 2.3 °C -10.9 °C 1019.9 hPa NW 27.8 km/h 27.8 km/h 37 % 0.0 mm 0.0 W/m2 CLR
19:16 2.3 °C -10.9 °C 1019.9 hPa NW 31.5 km/h 31.5 km/h 37 % 0.0 mm 0.0 W/m2 CLR
19:21 2.3 °C -10.9 °C 1019.9 hPa NW 32.2 km/h 32.2 km/h 37 % 0.0 mm 0.0 W/m2 CLR
19:26 2.3 °C -10.9 °C 1019.9 hPa NW 31.5 km/h 31.5 km/h 37 % 0.0 mm 0.0 W/m2 CLR
19:31 2.1 °C -10.8 °C 1020.2 hPa NW 22.2 km/h 22.2 km/h 38 % 0.0 mm 0.0 W/m2 CLR
19:36 2.0 °C -10.8 °C 1020.2 hPa NW 31.5 km/h 31.5 km/h 38 % 0.0 mm 0.0 W/m2 CLR
19:41 1.9 °C -10.6 °C 1020.2 hPa WNW 27.8 km/h 27.8 km/h 39 % 0.0 mm 0.0 W/m2 CLR
19:46 1.9 °C -10.6 °C 1020.2 hPa WNW 29.6 km/h 29.6 km/h 39 % 0.0 mm 0.0 W/m2 CLR
19:51 1.7 °C -10.8 °C 1020.2 hPa NW 24.1 km/h 24.1 km/h 39 % 0.0 mm 0.0 W/m2 CLR
19:56 1.6 °C -10.6 °C 1020.2 hPa NW 31.5 km/h 31.5 km/h 40 % 0.0 mm 0.0 W/m2 CLR
20:01 1.6 °C -10.6 °C 1020.2 hPa NW 24.1 km/h 24.1 km/h 40 % 0.0 mm 0.0 W/m2 CLR
20:06 1.6 °C -10.6 °C 1020.5 hPa WNW 29.6 km/h 29.6 km/h 40 % 0.0 mm 0.0 W/m2 CLR
20:11 1.6 °C -10.6 °C 1020.5 hPa WNW 22.2 km/h 22.2 km/h 40 % 0.0 mm 0.0 W/m2 CLR
20:16 1.4 °C -10.4 °C 1020.2 hPa WNW 27.4 km/h 27.4 km/h 41 % 0.0 mm 0.0 W/m2 CLR
20:21 1.3 °C -10.5 °C 1020.5 hPa WNW 22.5 km/h 22.5 km/h 41 % 0.0 mm 0.0 W/m2 CLR
20:26 1.2 °C -10.6 °C 1020.5 hPa WNW 25.9 km/h 25.9 km/h 41 % 0.0 mm 0.0 W/m2 CLR
20:31 1.2 °C -10.3 °C 1020.5 hPa WNW 27.8 km/h 27.8 km/h 42 % 0.0 mm 0.0 W/m2 CLR
20:36 1.2 °C -10.3 °C 1020.5 hPa WNW 31.5 km/h 31.5 km/h 42 % 0.0 mm 0.0 W/m2 CLR
20:41 1.2 °C -10.6 °C 1020.5 hPa WNW 32.2 km/h 32.2 km/h 41 % 0.0 mm 0.0 W/m2 CLR
20:46 1.2 °C -10.3 °C 1020.5 hPa WNW 25.9 km/h 25.9 km/h 42 % 0.0 mm 0.0 W/m2 CLR
20:51 1.0 °C -10.5 °C 1020.5 hPa WNW 29.0 km/h 29.0 km/h 42 % 0.0 mm 0.0 W/m2 CLR
20:56 0.9 °C -10.3 °C 1020.9 hPa WNW 31.5 km/h 31.5 km/h 43 % 0.0 mm 0.0 W/m2 CLR
21:01 0.9 °C -10.3 °C 1020.9 hPa WNW 29.6 km/h 29.6 km/h 43 % 0.0 mm 0.0 W/m2 CLR
21:06 0.8 °C -10.3 °C 1020.9 hPa WNW 24.1 km/h 24.1 km/h 43 % 0.0 mm 0.0 W/m2 CLR
21:11 0.7 °C -10.2 °C 1020.9 hPa WNW 25.9 km/h 25.9 km/h 44 % 0.0 mm 0.0 W/m2 CLR
21:16 0.7 °C -10.2 °C 1020.9 hPa WNW 27.8 km/h 27.8 km/h 44 % 0.0 mm 0.0 W/m2 CLR
21:21 0.7 °C -10.2 °C 1020.9 hPa WNW 20.9 km/h 20.9 km/h 44 % 0.0 mm 0.0 W/m2 CLR
21:26 0.7 °C -9.9 °C 1021.2 hPa WNW 25.9 km/h 25.9 km/h 45 % 0.0 mm 0.0 W/m2 CLR
21:31 0.7 °C -9.9 °C 1021.2 hPa West 24.1 km/h 24.1 km/h 45 % 0.0 mm 0.0 W/m2 CLR
21:36 0.7 °C -9.7 °C 1020.9 hPa West 25.7 km/h 25.7 km/h 46 % 0.0 mm 0.0 W/m2 CLR
21:41 0.6 °C -9.8 °C 1020.9 hPa WNW 27.8 km/h 27.8 km/h 46 % 0.0 mm 0.0 W/m2 CLR
21:46 0.6 °C -9.8 °C 1021.2 hPa West 31.5 km/h 31.5 km/h 46 % 0.0 mm 0.0 W/m2 CLR
21:51 0.6 °C -9.5 °C 1021.2 hPa West 20.4 km/h 20.4 km/h 47 % 0.0 mm 0.0 W/m2 CLR
21:56 0.5 °C -9.3 °C 1021.2 hPa West 25.9 km/h 25.9 km/h 48 % 0.0 mm 0.0 W/m2 CLR
22:01 0.4 °C -9.3 °C 1021.2 hPa West 20.4 km/h 20.4 km/h 48 % 0.0 mm 0.0 W/m2 CLR
22:06 0.4 °C -9.1 °C 1021.2 hPa West 22.2 km/h 22.2 km/h 49 % 0.0 mm 0.0 W/m2 CLR
22:11 0.3 °C -8.9 °C 1021.2 hPa West 25.9 km/h 25.9 km/h 50 % 0.0 mm 0.0 W/m2 CLR
22:16 0.3 °C -8.9 °C 1021.6 hPa West 20.9 km/h 20.9 km/h 50 % 0.0 mm 0.0 W/m2 CLR
22:21 0.2 °C -8.7 °C 1021.6 hPa West 19.3 km/h 19.3 km/h 51 % 0.0 mm 0.0 W/m2 CLR
22:26 0.2 °C -8.6 °C 1021.6 hPa West 20.4 km/h 20.4 km/h 52 % 0.0 mm 0.0 W/m2 CLR
22:31 0.1 °C -8.6 °C 1021.6 hPa West 16.7 km/h 16.7 km/h 52 % 0.0 mm 0.0 W/m2 CLR
22:36 0.0 °C -8.2 °C 1021.6 hPa WSW 20.4 km/h 20.4 km/h 54 % 0.0 mm 0.0 W/m2 CLR
22:41 -0.1 °C -8.3 °C 1021.9 hPa WSW 18.5 km/h 18.5 km/h 54 % 0.0 mm 0.0 W/m2 CLR
22:46 -0.1 °C -8.1 °C 1021.9 hPa WSW 20.9 km/h 20.9 km/h 55 % 0.0 mm 0.0 W/m2 CLR
22:51 0.0 °C -8.0 °C 1021.9 hPa WSW 18.5 km/h 18.5 km/h 55 % 0.0 mm 0.0 W/m2 CLR
22:56 -0.1 °C -7.8 °C 1021.9 hPa West 25.9 km/h 25.9 km/h 56 % 0.0 mm 0.0 W/m2 CLR
23:01 -0.1 °C -7.8 °C 1021.9 hPa WSW 18.5 km/h 18.5 km/h 56 % 0.0 mm 0.0 W/m2 CLR
23:07 -0.1 °C -7.8 °C 1021.9 hPa West 25.9 km/h 25.9 km/h 56 % 0.0 mm 0.0 W/m2 CLR
23:12 -0.1 °C -7.6 °C 1021.9 hPa West 19.3 km/h 19.3 km/h 57 % 0.0 mm 0.0 W/m2 CLR
23:17 -0.1 °C -7.6 °C 1021.9 hPa West 18.5 km/h 18.5 km/h 57 % 0.0 mm 0.0 W/m2 CLR
23:22 -0.2 °C -7.7 °C 1021.9 hPa WSW 20.9 km/h 20.9 km/h 57 % 0.0 mm 0.0 W/m2 CLR
23:27 -0.2 °C -7.7 °C 1021.9 hPa WSW 18.5 km/h 18.5 km/h 57 % 0.0 mm 0.0 W/m2 CLR
23:32 -0.3 °C -7.8 °C 1021.9 hPa WSW 18.5 km/h 18.5 km/h 57 % 0.0 mm 0.0 W/m2 CLR
23:37 -0.2 °C -7.5 °C 1022.2 hPa West 22.2 km/h 22.2 km/h 58 % 0.0 mm 0.0 W/m2 CLR
23:42 -0.2 °C -7.7 °C 1022.2 hPa West 18.5 km/h 18.5 km/h 57 % 0.0 mm 0.0 W/m2 CLR
23:47 -0.2 °C -7.5 °C 1021.9 hPa West 22.5 km/h 22.5 km/h 58 % 0.0 mm 0.0 W/m2 CLR
23:52 -0.2 °C -7.7 °C 1022.2 hPa West 22.2 km/h 22.2 km/h 57 % 0.0 mm 0.0 W/m2 CLR
23:57 -0.2 °C -7.7 °C 1022.2 hPa West 20.4 km/h 20.4 km/h 57 % 0.0 mm 0.0 W/m2 CLR
Lo Temps de Massalio
Compliments of Weather Underground - 1.25 mb